.
WxDataArchive / Data Records for 2014-09-15
2014-09-14 September 2014 2014-09-16

Data Records for Monday, 15 September 2014

Time	Temp	Chill	HIndex	Humid	Dewpt	 Wind 	HiWind	WindDir	Rain 	Barom
-----	----	-----	------	-----	-----	------	------	-------	-----	-----
00:00	48.9	48.9	48.9	90	46.1	0	0	---	0.00	30.188 
00:05	48.9	48.9	48.9	91	46.4	0	0	---	0.00	30.188 
00:10	48.8	48.8	48.8	91	46.3	0	0	---	0.00	30.188 
00:15	48.6	48.6	48.6	91	46.1	0	0	---	0.00	30.184 
00:20	48.6	48.6	48.6	91	46.1	0	0	---	0.00	30.184 
00:25	48.5	48.5	48.5	91	46.0	0	0	---	0.00	30.184 
00:30	48.5	48.5	48.5	91	46.0	0	0	---	0.00	30.185 
00:35	48.3	48.3	48.3	91	45.8	0	0	---	0.00	30.185 
00:40	48.3	48.3	48.3	91	45.8	0	0	---	0.00	30.185 
00:45	48.2	48.2	48.2	92	46.0	0	0	---	0.00	30.189 
00:50	48.2	48.2	48.2	92	46.0	0	0	---	0.00	30.189 
00:55	48.0	48.0	48.0	92	45.8	0	0	---	0.00	30.189 
01:00	47.9	47.9	47.9	92	45.7	0	0	---	0.00	30.190 
01:05	47.9	47.9	47.9	92	45.7	0	0	---	0.00	30.190 
01:10	47.7	47.7	47.7	92	45.5	0	0	---	0.00	30.190 
01:15	47.6	47.6	47.6	92	45.4	0	0	---	0.00	30.184 
01:20	47.6	47.6	47.6	92	45.4	0	0	---	0.00	30.184 
01:25	47.4	47.4	47.4	92	45.2	0	0	---	0.00	30.184 
01:30	47.4	47.4	47.4	92	45.2	0	0	---	0.00	30.185 
01:35	47.3	47.3	47.3	92	45.1	0	0	---	0.00	30.185 
01:40	47.3	47.3	47.3	92	45.1	0	0	---	0.00	30.185 
01:45	47.1	47.1	47.1	92	44.9	0	0	---	0.00	30.186 
01:50	47.1	47.1	47.1	92	44.9	0	0	---	0.00	30.186 
01:55	47.1	47.1	47.1	92	44.9	0	0	---	0.00	30.186 
02:00	47.0	47.0	47.0	92	44.8	0	0	---	0.00	30.185 
02:05	47.0	47.0	47.0	92	44.8	0	0	---	0.00	30.185 
02:10	46.8	46.8	46.8	92	44.6	0	0	---	0.00	30.185 
02:15	46.8	46.8	46.8	93	44.9	0	0	---	0.00	30.185 
02:20	46.7	46.7	46.7	93	44.8	0	0	---	0.00	30.185 
02:25	46.7	46.7	46.7	93	44.8	0	0	---	0.00	30.185 
02:30	46.5	46.5	46.5	93	44.6	0	0	---	0.00	30.187 
02:35	46.5	46.5	46.5	93	44.6	0	0	---	0.00	30.187 
02:40	46.5	46.5	46.5	93	44.6	0	0	---	0.00	30.187 
02:45	46.5	46.5	46.5	93	44.6	0	0	---	0.00	30.186 
02:50	46.4	46.4	46.4	93	44.5	0	0	---	0.00	30.186 
02:55	46.4	46.4	46.4	93	44.5	0	0	---	0.00	30.186 
03:00	46.2	46.2	46.2	93	44.3	0	0	---	0.00	30.186 
03:05	46.2	46.2	46.2	93	44.3	0	0	---	0.00	30.186 
03:10	46.2	46.2	46.2	93	44.3	0	0	---	0.00	30.186 
03:15	46.2	46.2	46.2	93	44.3	0	0	---	0.00	30.187 
03:20	46.1	46.1	46.1	93	44.2	0	0	---	0.00	30.187 
03:25	46.1	46.1	46.1	93	44.2	0	0	---	0.00	30.187 
03:30	46.2	46.2	46.2	94	44.6	0	0	---	0.00	30.185 
03:35	46.2	46.2	46.2	94	44.6	0	0	---	0.00	30.185 
03:40	46.2	46.2	46.2	94	44.6	0	0	---	0.00	30.185 
03:45	46.2	46.2	46.2	94	44.6	0	0	---	0.00	30.183 
03:50	46.2	46.2	46.2	94	44.6	0	0	---	0.00	30.183 
03:55	46.2	46.2	46.2	94	44.6	0	0	---	0.00	30.183 
04:00	46.2	46.2	46.2	94	44.6	0	0	---	0.00	30.183 
04:05	46.2	46.2	46.2	94	44.6	0	0	---	0.00	30.183 
04:10	46.2	46.2	46.2	94	44.6	0	0	---	0.00	30.183 
04:15	46.2	46.2	46.2	94	44.6	0	0	---	0.00	30.181 
04:20	46.2	46.2	46.2	94	44.6	0	0	---	0.00	30.181 
04:25	46.2	46.2	46.2	94	44.6	0	0	---	0.00	30.181 
04:30	46.2	46.2	46.2	94	44.6	0	0	---	0.00	30.186 
04:35	46.2	46.2	46.2	94	44.6	0	0	---	0.00	30.186 
04:40	46.1	46.1	46.1	94	44.5	0	0	---	0.00	30.186 
04:45	46.1	46.1	46.1	94	44.5	0	0	---	0.00	30.188 
04:50	46.0	46.0	46.0	94	44.4	0	0	---	0.00	30.188 
04:55	46.0	46.0	46.0	94	44.4	0	0	---	0.00	30.188 
05:00	46.0	46.0	46.0	94	44.4	0	0	---	0.00	30.184 
05:05	46.0	46.0	46.0	94	44.4	0	0	---	0.00	30.184 
05:10	45.8	45.8	45.8	94	44.2	0	0	---	0.00	30.184 
05:15	45.8	45.8	45.8	94	44.2	0	0	---	0.00	30.186 
05:20	45.7	45.7	45.7	94	44.1	0	0	---	0.00	30.186 
05:25	45.7	45.7	45.7	94	44.1	0	0	---	0.00	30.186 
05:30	45.5	45.5	45.5	94	43.9	0	0	---	0.00	30.186 
05:35	45.5	45.5	45.5	94	43.9	0	0	---	0.00	30.186 
05:40	45.4	45.4	45.4	94	43.8	0	0	---	0.00	30.186 
05:45	45.4	45.4	45.4	94	43.8	0	0	---	0.00	30.181 
05:50	45.4	45.4	45.4	94	43.8	0	0	---	0.00	30.181 
05:55	45.5	45.5	45.5	94	43.9	0	0	---	0.00	30.181 
06:00	45.5	45.5	45.5	95	44.2	0	0	---	0.00	30.174 
06:05	45.7	45.7	45.7	94	44.1	0	0	---	0.00	30.174 
06:10	45.8	45.8	45.8	95	44.4	0	0	---	0.00	30.174 
06:15	46.0	46.0	46.0	95	44.6	0	0	---	0.00	30.176 
06:20	46.0	46.0	46.0	95	44.6	0	0	---	0.00	30.176 
06:25	46.0	46.0	46.0	95	44.6	0	0	---	0.00	30.176 
06:30	46.0	46.0	46.0	95	44.6	0	0	---	0.00	30.169 
06:35	46.1	46.1	46.1	95	44.7	0	0	---	0.00	30.169 
06:40	46.1	46.1	46.1	95	44.7	0	0	---	0.00	30.169 
06:45	46.2	46.2	46.2	95	44.8	0	0	---	0.00	30.174 
06:50	46.2	46.2	46.2	95	44.8	0	0	---	0.00	30.174 
06:55	46.2	46.2	46.2	95	44.8	0	0	---	0.00	30.174 
07:00	46.4	46.4	46.4	95	45.0	0	0	---	0.00	30.177 
07:05	46.4	46.4	46.4	95	45.0	0	0	---	0.00	30.177 
07:10	46.4	46.4	46.4	95	45.0	0	0	---	0.00	30.177 
07:15	46.4	46.4	46.4	95	45.0	0	0	---	0.00	30.186 
07:20	46.4	46.4	46.4	95	45.0	0	0	---	0.00	30.186 
07:25	46.4	46.4	46.4	95	45.0	0	0	---	0.00	30.186 
07:30	46.2	46.2	46.2	95	44.8	0	0	---	0.00	30.181 
07:35	46.2	46.2	46.2	95	44.8	0	0	---	0.00	30.181 
07:40	46.2	46.2	46.2	95	44.8	0	0	---	0.00	30.181 
07:45	46.2	46.2	46.2	95	44.8	0	0	---	0.00	30.184 
07:50	46.2	46.2	46.2	95	44.8	0	0	---	0.00	30.184 
07:55	46.4	46.4	46.4	95	45.0	0	0	---	0.00	30.184 
08:00	46.5	46.5	46.5	95	45.1	0	0	---	0.00	30.185 
08:05	46.7	46.7	46.7	95	45.3	0	0	---	0.00	30.185 
08:10	46.8	46.8	46.8	95	45.4	0	0	---	0.00	30.185 
08:15	47.1	47.1	47.1	95	45.7	0	0	---	0.00	30.189 
08:20	47.4	47.4	47.4	96	46.3	0	0	---	0.00	30.189 
08:25	47.9	47.9	47.9	96	46.8	0	0	---	0.00	30.189 
08:30	48.2	48.2	48.2	96	47.1	0	0	---	0.00	30.180 
08:35	48.8	48.8	48.8	96	47.7	0	0	---	0.00	30.180 
08:40	49.4	49.4	49.4	96	48.3	0	0	---	0.00	30.180 
08:45	49.8	49.8	49.8	96	48.7	0	0	---	0.00	30.184 
08:50	50.1	50.1	50.1	96	49.0	0	0	---	0.00	30.184 
08:55	50.5	50.5	50.5	96	49.4	0	0	---	0.00	30.184 
09:00	50.7	50.7	50.7	96	49.6	0	1	90	0.00	30.158 
09:05	50.8	50.8	50.8	96	49.7	0	0	---	0.00	30.158 
09:10	51.0	51.0	51.0	96	49.9	0	0	---	0.00	30.158 
09:15	51.1	51.1	51.1	95	49.7	0	1	90	0.00	30.145 
09:20	51.3	51.3	51.3	95	49.9	0	1	90	0.00	30.145 
09:25	51.4	51.4	51.4	95	50.0	0	1	90	0.00	30.145 
09:30	51.6	51.6	51.6	95	50.2	0	0	---	0.00	30.154 
09:35	51.7	51.7	51.7	95	50.3	0	0	---	0.00	30.154 
09:40	51.7	51.7	51.7	95	50.3	0	1	90	0.00	30.154 
09:45	52.0	52.0	52.0	95	50.6	0	0	---	0.00	30.156 
09:50	52.2	52.2	52.2	94	50.5	0	0	---	0.00	30.156 
09:55	52.3	52.3	52.3	94	50.6	0	1	90	0.01	30.156 
10:00	52.5	52.5	52.5	94	50.8	0	2	90	0.00	30.148 
10:05	52.6	52.6	52.6	94	50.9	0	2	90	0.01	30.148 
10:10	52.6	52.6	52.6	94	50.9	0	1	90	0.00	30.148 
10:15	52.9	52.9	52.9	94	51.2	1	3	90	0.01	30.180 
10:20	53.1	53.1	53.1	94	51.4	0	1	90	0.00	30.180 
10:25	53.2	53.2	53.2	94	51.5	0	1	90	0.00	30.180 
10:30	53.6	53.6	53.6	95	52.2	0	1	90	0.00	30.191 
10:35	53.9	53.9	53.9	95	52.5	1	2	90	0.00	30.191 
10:40	54.2	54.2	54.2	94	52.5	1	4	90	0.00	30.191 
10:45	54.4	54.4	54.4	94	52.7	1	3	90	0.00	30.197 
10:50	54.7	54.7	54.7	94	53.0	0	2	90	0.00	30.197 
10:55	54.7	54.7	54.7	93	52.7	0	1	90	0.00	30.197 
11:00	54.7	54.7	54.7	93	52.7	1	3	90	0.00	30.207 
11:05	54.7	54.7	54.7	93	52.7	1	3	90	0.00	30.207 
11:10	54.7	54.7	54.7	92	52.4	0	2	90	0.00	30.207 
11:15	54.7	54.7	54.7	92	52.4	0	1	90	0.00	30.170 
11:20	54.7	54.7	54.7	92	52.4	0	1	90	0.00	30.170 
11:25	54.7	54.7	54.7	92	52.4	0	1	90	0.01	30.170 
11:30	54.7	54.7	54.7	92	52.4	1	2	90	0.00	30.108 
11:35	54.7	54.7	54.7	92	52.4	0	2	90	0.00	30.108 
11:40	54.8	54.8	54.8	92	52.5	0	1	90	0.01	30.108 
11:45	55.0	55.0	55.0	92	52.7	0	3	90	0.01	30.094 
11:50	55.0	55.0	55.0	92	52.7	0	2	90	0.01	30.094 
11:55	55.0	55.0	55.0	92	52.7	0	1	90	0.00	30.094 
12:00	55.1	55.1	55.1	92	52.8	0	1	90	0.00	30.096 
12:05	55.4	55.4	55.4	92	53.1	0	1	90	0.00	30.096 
12:10	55.6	55.6	55.6	92	53.3	0	1	90	0.00	30.096 
12:15	55.7	55.7	55.7	93	53.7	0	2	90	0.00	30.111 
12:20	55.7	55.7	55.7	92	53.4	0	2	90	0.00	30.111 
12:25	55.9	55.9	55.9	92	53.6	0	2	90	0.00	30.111 
12:30	55.9	55.9	55.9	92	53.6	0	2	90	0.00	30.144 
12:35	56.0	56.0	56.0	92	53.7	0	2	90	0.00	30.144 
12:40	56.0	56.0	56.0	92	53.7	0	1	90	0.00	30.144 
12:45	56.0	56.0	56.0	92	53.7	0	1	90	0.00	30.147 
12:50	56.2	56.2	56.2	92	53.9	0	1	90	0.00	30.147 
12:55	56.3	56.3	56.3	91	53.7	0	1	90	0.00	30.147 
13:00	56.5	56.5	56.5	91	53.9	0	1	90	0.00	30.155 
13:05	56.6	56.6	56.6	91	54.0	0	0	---	0.00	30.155 
13:10	56.7	56.7	56.7	90	53.8	0	1	90	0.00	30.155 
13:15	56.7	56.7	56.7	90	53.8	0	1	90	0.00	30.159 
13:20	56.7	56.7	56.7	89	53.5	0	0	---	0.00	30.159 
13:25	56.9	56.9	56.9	89	53.7	0	0	---	0.00	30.159 
13:30	57.0	57.0	57.0	89	53.8	0	0	---	0.00	30.142 
13:35	57.0	57.0	57.0	89	53.8	0	0	---	0.00	30.142 
13:40	57.0	57.0	57.0	88	53.5	0	0	---	0.00	30.142 
13:45	57.0	57.0	57.0	88	53.5	0	0	---	0.00	30.129 
13:50	57.2	57.2	57.2	88	53.7	0	0	---	0.00	30.129 
13:55	57.3	57.3	57.3	88	53.8	0	0	---	0.00	30.129 
14:00	57.3	57.3	57.3	88	53.8	0	0	---	0.00	30.140 
14:05	57.5	57.5	57.5	89	54.3	0	0	---	0.00	30.140 
14:10	57.5	57.5	57.5	89	54.3	0	1	90	0.00	30.140 
14:15	57.3	57.3	57.3	89	54.1	0	1	90	0.00	30.119 
14:20	57.3	57.3	57.3	89	54.1	0	0	---	0.00	30.119 
14:25	57.2	57.2	57.2	89	54.0	0	1	90	0.00	30.119 
14:30	57.2	57.2	57.2	89	54.0	0	1	90	0.00	30.113 
14:35	57.0	57.0	57.0	89	53.8	0	0	---	0.00	30.113 
14:40	57.0	57.0	57.0	89	53.8	0	1	90	0.00	30.113 
14:45	57.0	57.0	57.0	89	53.8	0	0	---	0.01	30.117 
14:50	57.0	57.0	57.0	90	54.1	0	0	---	0.00	30.117 
14:55	56.9	56.9	56.9	89	53.7	0	0	---	0.00	30.117 
15:00	56.9	56.9	56.9	89	53.7	0	0	---	0.00	30.104 
15:05	56.9	56.9	56.9	89	53.7	0	0	---	0.00	30.104 
15:10	56.9	56.9	56.9	89	53.7	0	0	---	0.00	30.104 
15:15	56.9	56.9	56.9	89	53.7	0	0	---	0.00	30.087 
15:20	56.9	56.9	56.9	89	53.7	0	0	---	0.00	30.087 
15:25	56.9	56.9	56.9	89	53.7	0	0	---	0.00	30.087 
15:30	56.7	56.7	56.7	89	53.5	0	0	---	0.00	30.085 
15:35	56.7	56.7	56.7	89	53.5	0	0	---	0.00	30.085 
15:40	56.7	56.7	56.7	89	53.5	0	0	---	0.00	30.085 
15:45	56.7	56.7	56.7	89	53.5	0	0	---	0.00	30.079 
15:50	56.9	56.9	56.9	89	53.7	0	0	---	0.00	30.079 
15:55	57.0	57.0	57.0	90	54.1	0	0	---	0.00	30.079 
16:00	57.0	57.0	57.0	89	53.8	0	0	---	0.00	30.068 
16:05	57.2	57.2	57.2	89	54.0	0	0	---	0.00	30.068 
16:10	57.3	57.3	57.3	89	54.1	0	0	---	0.00	30.068 
16:15	57.5	57.5	57.5	89	54.3	0	0	---	0.00	30.063 
16:20	57.5	57.5	57.5	88	54.0	0	0	---	0.00	30.063 
16:25	57.3	57.3	57.3	88	53.8	0	1	90	0.00	30.063 
16:30	57.3	57.3	57.3	88	53.8	0	0	---	0.00	30.073 
16:35	57.3	57.3	57.3	88	53.8	0	0	---	0.00	30.073 
16:40	57.2	57.2	57.2	87	53.4	0	0	---	0.00	30.073 
16:45	57.2	57.2	57.2	88	53.7	0	0	---	0.00	30.064 
16:50	57.2	57.2	57.2	88	53.7	0	0	---	0.00	30.064 
16:55	57.2	57.2	57.2	87	53.4	0	0	---	0.00	30.064 
17:00	57.0	57.0	57.0	88	53.5	0	0	---	0.00	30.058 
17:05	57.0	57.0	57.0	88	53.5	0	0	---	0.00	30.058 
17:10	57.0	57.0	57.0	88	53.5	0	0	---	0.00	30.058 
17:15	57.0	57.0	57.0	88	53.5	0	0	---	0.00	30.064 
17:20	56.9	56.9	56.9	88	53.4	0	1	90	0.00	30.064 
17:25	56.9	56.9	56.9	88	53.4	0	0	---	0.00	30.064 
17:30	56.9	56.9	56.9	89	53.7	0	1	90	0.03	30.059 
17:35	56.7	56.7	56.7	89	53.5	0	0	---	0.00	30.059 
17:40	56.6	56.6	56.6	90	53.7	0	0	---	0.00	30.059 
17:45	56.5	56.5	56.5	90	53.6	0	0	---	0.00	30.058 
17:50	56.3	56.3	56.3	90	53.4	0	0	---	0.00	30.058 
17:55	56.2	56.2	56.2	90	53.3	0	0	---	0.00	30.058 
18:00	56.0	56.0	56.0	91	53.4	0	0	---	0.01	30.066 
18:05	55.9	55.9	55.9	91	53.3	0	0	---	0.01	30.066 
18:10	55.9	55.9	55.9	91	53.3	0	0	---	0.01	30.066 
18:15	55.7	55.7	55.7	92	53.4	0	1	90	0.02	30.070 
18:20	55.6	55.6	55.6	92	53.3	0	1	90	0.01	30.070 
18:25	55.4	55.4	55.4	92	53.1	0	2	90	0.01	30.070 
18:30	55.3	55.3	55.3	92	53.0	0	1	90	0.00	30.084 
18:35	55.1	55.1	55.1	92	52.8	0	1	90	0.01	30.084 
18:40	55.1	55.1	55.1	93	53.1	0	0	---	0.01	30.084 
18:45	55.0	55.0	55.0	93	53.0	0	0	---	0.00	30.081 
18:50	55.0	55.0	55.0	93	53.0	0	0	---	0.00	30.081 
18:55	55.0	55.0	55.0	93	53.0	0	0	---	0.01	30.081 
19:00	55.1	55.1	55.1	93	53.1	0	1	90	0.00	30.083 
19:05	55.0	55.0	55.0	93	53.0	0	0	---	0.00	30.083 
19:10	54.8	54.8	54.8	93	52.8	0	1	90	0.00	30.083 
19:15	54.8	54.8	54.8	94	53.1	0	0	---	0.01	30.084 
19:20	54.8	54.8	54.8	94	53.1	0	0	---	0.00	30.084 
19:25	54.8	54.8	54.8	94	53.1	0	0	---	0.00	30.084 
19:30	54.8	54.8	54.8	94	53.1	0	0	---	0.00	30.084 
19:35	54.7	54.7	54.7	94	53.0	0	0	---	0.01	30.084 
19:40	54.7	54.7	54.7	94	53.0	0	0	---	0.00	30.084 
19:45	54.7	54.7	54.7	94	53.0	0	0	---	0.01	30.080 
19:50	54.7	54.7	54.7	94	53.0	0	0	---	0.01	30.080 
19:55	54.7	54.7	54.7	94	53.0	0	0	---	0.01	30.080 
20:00	54.5	54.5	54.5	94	52.8	0	1	90	0.01	30.081 
20:05	54.5	54.5	54.5	94	52.8	0	1	90	0.02	30.081 
20:10	54.5	54.5	54.5	94	52.8	0	0	---	0.02	30.081 
20:15	54.5	54.5	54.5	94	52.8	0	1	90	0.00	30.078 
20:20	54.4	54.4	54.4	95	53.0	0	1	90	0.00	30.078 
20:25	54.4	54.4	54.4	95	53.0	0	0	---	0.00	30.078 
20:30	54.4	54.4	54.4	95	53.0	0	1	90	0.00	30.081 
20:35	54.2	54.2	54.2	95	52.8	0	0	---	0.00	30.081 
20:40	54.2	54.2	54.2	95	52.8	0	1	90	0.00	30.081 
20:45	54.1	54.1	54.1	95	52.7	0	1	90	0.00	30.081 
20:50	54.1	54.1	54.1	95	52.7	0	0	---	0.00	30.081 
20:55	54.1	54.1	54.1	95	52.7	0	0	---	0.00	30.081 
21:00	54.1	54.1	54.1	95	52.7	0	0	---	0.00	30.086 
21:05	54.1	54.1	54.1	95	52.7	0	1	90	0.00	30.086 
21:10	54.1	54.1	54.1	95	52.7	0	1	90	0.00	30.086 
21:15	54.1	54.1	54.1	95	52.7	0	0	---	0.00	30.092 
21:20	54.1	54.1	54.1	95	52.7	0	0	---	0.00	30.092 
21:25	54.1	54.1	54.1	95	52.7	0	0	---	0.00	30.092 
21:30	54.1	54.1	54.1	95	52.7	0	0	---	0.00	30.095 
21:35	54.1	54.1	54.1	95	52.7	0	1	90	0.00	30.095 
21:40	54.1	54.1	54.1	95	52.7	0	0	---	0.00	30.095 
21:45	54.1	54.1	54.1	95	52.7	0	0	---	0.00	30.095 
21:50	54.1	54.1	54.1	95	52.7	0	0	---	0.00	30.095 
21:55	54.1	54.1	54.1	95	52.7	0	0	---	0.00	30.095 
22:00	54.1	54.1	54.1	95	52.7	0	0	---	0.00	30.093 
22:05	54.2	54.2	54.2	95	52.8	0	0	---	0.00	30.093 
22:10	54.2	54.2	54.2	95	52.8	0	0	---	0.00	30.093 
22:15	54.2	54.2	54.2	95	52.8	0	0	---	0.00	30.096 
22:20	54.2	54.2	54.2	95	52.8	0	0	---	0.00	30.096 
22:25	54.2	54.2	54.2	95	52.8	0	0	---	0.00	30.096 
22:30	54.2	54.2	54.2	95	52.8	0	0	---	0.00	30.094 
22:35	54.2	54.2	54.2	95	52.8	0	0	---	0.00	30.094 
22:40	54.1	54.1	54.1	95	52.7	0	0	---	0.00	30.094 
22:45	54.1	54.1	54.1	95	52.7	0	1	90	0.00	30.104 
22:50	54.1	54.1	54.1	95	52.7	0	0	---	0.00	30.104 
22:55	54.1	54.1	54.1	95	52.7	0	1	90	0.00	30.104 
23:00	54.1	54.1	54.1	95	52.7	0	0	---	0.00	30.103 
23:05	54.1	54.1	54.1	96	53.0	0	0	---	0.00	30.103 
23:10	54.1	54.1	54.1	95	52.7	0	0	---	0.00	30.103 
23:15	54.1	54.1	54.1	96	53.0	0	0	---	0.00	30.105 
23:20	54.1	54.1	54.1	96	53.0	0	0	---	0.00	30.105 
23:25	54.1	54.1	54.1	95	52.7	0	0	---	0.00	30.105 
23:30	53.9	53.9	53.9	95	52.5	0	1	90	0.00	30.103 
23:35	53.9	53.9	53.9	95	52.5	0	0	---	0.00	30.103 
23:40	53.8	53.8	53.8	96	52.7	0	0	---	0.00	30.103 
23:45	53.8	53.8	53.8	95	52.4	0	0	---	0.00	30.103 
23:50	53.6	53.6	53.6	96	52.5	0	0	---	0.00	30.103 
23:55	53.5	53.5	53.5	95	52.1	0	0	---	0.00	30.103 

CoCoRaHS
IN-AL-39
A2 Web Hosting
Creative Commons License
GoDaddy
search engine by freefind advanced

loaded 2018-11-15 03:16:14 • last modified 2010-11-18 10:43:29
Privacy PolicyDisclaimer
• wx.awcolley.com is powered by PmWiki v.2002016 •
• all content (unless otherwise noted) © 2018 A W Colley